createdAt,value
2022-09-06T00:01:15.067Z,19.09
2022-09-06T00:03:41.732Z,18.87
2022-09-06T00:06:09.907Z,18.95
2022-09-06T00:08:36.613Z,18.95
2022-09-06T00:11:03.742Z,18.84
2022-09-06T00:13:30.391Z,18.87
2022-09-06T00:15:57.017Z,18.85
2022-09-06T00:18:23.670Z,19.01
2022-09-06T00:20:50.279Z,18.98
2022-09-06T00:23:16.926Z,19.06
2022-09-06T00:25:43.451Z,18.92
2022-09-06T00:28:09.989Z,18.89
2022-09-06T00:30:36.681Z,19.03
2022-09-06T00:33:03.226Z,19.13
2022-09-06T00:35:29.953Z,19.04
2022-09-06T00:37:57.629Z,18.95
2022-09-06T00:40:24.168Z,18.86
2022-09-06T00:42:50.826Z,18.97
2022-09-06T00:45:17.402Z,19.13
2022-09-06T00:47:44.346Z,19.09
2022-09-06T00:50:12.178Z,18.93
2022-09-06T00:52:39.713Z,18.91
2022-09-06T00:55:06.582Z,18.96
2022-09-06T00:57:33.497Z,18.96
2022-09-06T01:00:00.275Z,18.90
2022-09-06T01:02:26.967Z,18.98
2022-09-06T01:04:54.066Z,18.82
2022-09-06T01:07:39.367Z,18.69
2022-09-06T01:10:17.728Z,18.67
2022-09-06T01:13:03.030Z,18.80
2022-09-06T01:15:48.185Z,18.92
2022-09-06T01:18:33.618Z,18.81
2022-09-06T01:21:19.017Z,18.87
2022-09-06T01:24:04.441Z,18.84
2022-09-06T01:26:33.961Z,18.67
2022-09-06T01:29:00.898Z,18.63
2022-09-06T01:31:47.884Z,18.66
2022-09-06T01:34:35.311Z,18.76
2022-09-06T01:37:10.371Z,18.76
2022-09-06T01:39:38.063Z,18.65
2022-09-06T01:42:07.688Z,18.72
2022-09-06T01:44:35.809Z,18.72
2022-09-06T01:47:14.497Z,18.74
2022-09-06T01:49:43.783Z,18.73
2022-09-06T01:52:10.259Z,18.64
2022-09-06T01:54:36.743Z,18.45
2022-09-06T01:57:03.204Z,18.40
2022-09-06T01:59:41.600Z,18.54
2022-09-06T02:02:19.187Z,18.56
2022-09-06T02:04:48.077Z,18.53
2022-09-06T02:07:26.390Z,18.49
2022-09-06T02:09:56.084Z,18.39
2022-09-06T02:12:24.631Z,18.44
2022-09-06T02:14:55.948Z,18.28
2022-09-06T02:17:26.190Z,18.27
2022-09-06T02:19:55.588Z,18.43
2022-09-06T02:22:23.861Z,18.37
2022-09-06T02:24:52.734Z,18.03
2022-09-06T02:27:19.420Z,18.01
2022-09-06T02:29:46.126Z,18.09
2022-09-06T02:32:15.622Z,17.82
2022-09-06T02:34:43.229Z,17.90
2022-09-06T02:37:11.270Z,17.83
2022-09-06T02:39:38.481Z,17.96
2022-09-06T02:42:05.969Z,17.89
2022-09-06T02:44:32.826Z,17.93
2022-09-06T02:47:01.326Z,18.05
2022-09-06T02:49:27.810Z,17.79
2022-09-06T02:51:54.332Z,17.76
2022-09-06T02:54:20.917Z,17.76
2022-09-06T02:56:52.003Z,17.54
2022-09-06T02:59:18.846Z,17.59
2022-09-06T03:01:45.640Z,17.69
2022-09-06T03:04:12.302Z,17.61
2022-09-06T03:06:38.852Z,17.45
2022-09-06T03:09:05.382Z,17.41
2022-09-06T03:11:31.900Z,17.37
2022-09-06T03:13:58.404Z,17.35
2022-09-06T03:16:25.009Z,17.45
2022-09-06T03:18:51.586Z,17.40
2022-09-06T03:21:18.082Z,17.37
2022-09-06T03:23:45.892Z,17.29
2022-09-06T03:26:12.565Z,17.38
2022-09-06T03:28:39.517Z,17.36
2022-09-06T03:31:06.282Z,17.26
2022-09-06T03:33:32.891Z,17.23
2022-09-06T03:36:00.292Z,17.10
2022-09-06T03:38:28.025Z,17.19
2022-09-06T03:40:54.878Z,17.26
2022-09-06T03:43:23.000Z,17.10
2022-09-06T03:45:51.001Z,16.94
2022-09-06T03:48:18.461Z,16.96
2022-09-06T03:50:46.189Z,17.00
2022-09-06T03:53:12.876Z,16.86
2022-09-06T03:55:39.624Z,16.90
2022-09-06T03:58:06.140Z,17.03
2022-09-06T04:00:33.598Z,17.08
2022-09-06T04:03:01.848Z,17.07
2022-09-06T04:05:28.637Z,17.04
2022-09-06T04:07:55.127Z,17.18
2022-09-06T04:10:21.690Z,17.25
2022-09-06T04:12:48.275Z,17.19
2022-09-06T04:15:14.855Z,17.20
2022-09-06T04:17:45.865Z,17.17
2022-09-06T04:20:12.858Z,17.23
2022-09-06T04:22:39.395Z,17.23
2022-09-06T04:25:06.256Z,17.28
2022-09-06T04:27:33.138Z,17.27
2022-09-06T04:29:59.640Z,17.18
2022-09-06T04:32:26.201Z,17.17
2022-09-06T04:34:52.691Z,17.03
2022-09-06T04:37:20.095Z,16.91
2022-09-06T04:39:47.386Z,17.11
2022-09-06T04:42:14.014Z,17.26
2022-09-06T04:44:40.602Z,17.07
2022-09-06T04:47:12.664Z,17.05
2022-09-06T04:49:39.173Z,17.22
2022-09-06T04:52:05.696Z,17.45
2022-09-06T04:54:32.202Z,17.49
2022-09-06T04:56:58.713Z,17.54
2022-09-06T04:59:25.363Z,17.59
2022-09-06T05:01:51.924Z,17.71
2022-09-06T05:04:18.597Z,17.79
2022-09-06T05:06:45.547Z,17.96
2022-09-06T05:09:12.092Z,17.93
2022-09-06T05:11:38.587Z,18.48
2022-09-06T05:14:05.155Z,19.29
2022-09-06T05:16:31.683Z,18.33
2022-09-06T05:18:58.266Z,18.17
2022-09-06T05:21:24.899Z,18.25
2022-09-06T05:23:53.433Z,18.36
2022-09-06T05:26:23.122Z,17.83
2022-09-06T05:28:49.790Z,17.86
2022-09-06T05:31:29.970Z,18.10
2022-09-06T05:33:57.735Z,18.15
2022-09-06T05:36:24.898Z,18.29
2022-09-06T05:38:51.808Z,18.77
2022-09-06T05:41:18.667Z,18.47
2022-09-06T05:43:45.800Z,18.60
2022-09-06T05:46:12.815Z,18.69
2022-09-06T05:48:39.629Z,18.26
2022-09-06T05:51:12.846Z,19.67
2022-09-06T05:53:41.071Z,19.54
2022-09-06T05:56:08.118Z,19.34
2022-09-06T05:58:34.890Z,19.16
2022-09-06T06:01:27.507Z,18.70
2022-09-06T06:03:55.556Z,18.50
2022-09-06T06:06:22.499Z,18.57
2022-09-06T06:08:49.098Z,18.56
2022-09-06T06:11:16.277Z,18.50
2022-09-06T06:13:43.484Z,18.89
2022-09-06T06:16:11.449Z,18.42
2022-09-06T06:18:38.431Z,18.67
2022-09-06T06:21:08.001Z,18.64
2022-09-06T06:23:34.547Z,18.50
2022-09-06T06:26:01.077Z,18.56
2022-09-06T06:28:27.842Z,18.26
2022-09-06T06:30:54.571Z,18.99
2022-09-06T06:33:21.059Z,19.13
2022-09-06T06:35:57.577Z,18.42
2022-09-06T06:38:24.211Z,18.73
2022-09-06T06:40:53.156Z,18.38
2022-09-06T06:43:21.802Z,18.60
2022-09-06T06:45:49.970Z,19.05
2022-09-06T06:48:16.858Z,18.61
2022-09-06T06:50:43.424Z,18.62
2022-09-06T06:53:09.966Z,18.48
2022-09-06T06:55:36.494Z,18.64
2022-09-06T06:58:04.028Z,19.00
2022-09-06T07:00:30.622Z,19.56
2022-09-06T07:02:57.226Z,20.25
2022-09-06T07:08:10.783Z,20.74
2022-09-06T07:10:37.351Z,20.55
2022-09-06T07:13:04.345Z,20.67
2022-09-06T07:15:30.894Z,21.60
2022-09-06T07:17:57.773Z,22.31
2022-09-06T07:20:26.482Z,22.59
2022-09-06T07:25:52.106Z,21.82
2022-09-06T07:28:18.767Z,22.54
2022-09-06T07:30:45.700Z,22.73
2022-09-06T07:33:12.494Z,22.89
2022-09-06T07:35:39.001Z,22.84
2022-09-06T07:38:05.554Z,23.44
2022-09-06T07:40:32.220Z,23.13
2022-09-06T07:43:01.717Z,22.89
2022-09-06T07:45:28.246Z,22.71
2022-09-06T07:53:16.643Z,24.29
2022-09-06T07:55:46.313Z,23.55
2022-09-06T07:58:12.794Z,24.12
2022-09-06T08:00:41.223Z,24.05
2022-09-06T08:03:08.066Z,23.47
2022-09-06T08:11:07.701Z,23.64
2022-09-06T08:13:35.286Z,24.45
2022-09-06T08:16:02.657Z,24.16
2022-09-06T08:18:29.548Z,24.15
2022-09-06T08:20:56.186Z,25.00
2022-09-06T08:23:22.792Z,24.72
2022-09-06T08:25:56.846Z,24.52
2022-09-06T08:28:25.662Z,25.56
2022-09-06T08:30:55.249Z,24.85
2022-09-06T08:33:25.377Z,24.26
2022-09-06T08:35:56.502Z,25.29
2022-09-06T08:38:23.142Z,25.56
2022-09-06T08:40:50.881Z,25.11
2022-09-06T08:43:18.264Z,25.45
2022-09-06T08:45:45.583Z,25.03
2022-09-06T08:48:12.800Z,25.08
2022-09-06T08:50:43.573Z,25.10
2022-09-06T08:53:17.816Z,25.35
2022-09-06T08:55:47.610Z,24.86
2022-09-06T08:58:26.086Z,25.02
2022-09-06T09:00:58.595Z,25.44
2022-09-06T09:03:31.225Z,25.66
2022-09-06T09:05:59.929Z,26.12
2022-09-06T09:08:32.657Z,26.52
2022-09-06T09:10:59.195Z,26.58
2022-09-06T09:13:44.132Z,26.67
2022-09-06T09:16:10.814Z,26.39
2022-09-06T09:18:39.791Z,25.83
2022-09-06T09:21:06.387Z,26.30
2022-09-06T09:23:33.074Z,26.93
2022-09-06T09:26:02.290Z,27.18
2022-09-06T09:28:28.975Z,27.67
2022-09-06T09:30:56.570Z,27.41
2022-09-06T09:33:26.282Z,27.55
2022-09-06T09:35:53.356Z,27.31
2022-09-06T09:38:21.537Z,27.75
2022-09-06T09:40:51.069Z,26.98
2022-09-06T09:43:20.401Z,27.70
2022-09-06T09:45:57.092Z,28.40
2022-09-06T09:48:27.558Z,28.03
2022-09-06T09:50:55.662Z,27.62
2022-09-06T09:53:23.513Z,27.84
2022-09-06T09:55:55.743Z,28.25
2022-09-06T09:58:22.329Z,28.67
2022-09-06T10:01:08.565Z,28.56
2022-09-06T10:03:35.264Z,29.11
2022-09-06T10:06:02.645Z,27.10
2022-09-06T10:08:32.316Z,28.38
2022-09-06T10:10:58.909Z,29.15
2022-09-06T10:13:29.674Z,29.34
2022-09-06T10:15:58.671Z,28.13
2022-09-06T10:18:33.111Z,29.96
2022-09-06T10:21:01.639Z,29.43
2022-09-06T10:26:20.848Z,28.86
2022-09-06T10:28:47.470Z,29.21
2022-09-06T10:31:33.607Z,29.93
2022-09-06T10:34:18.561Z,30.11
2022-09-06T10:36:58.977Z,28.97
2022-09-06T10:39:35.267Z,28.22
2022-09-06T10:42:21.982Z,29.09
2022-09-06T10:44:57.191Z,31.01
2022-09-06T10:47:29.683Z,28.55
2022-09-06T10:49:57.835Z,30.68
2022-09-06T10:52:32.126Z,30.02
2022-09-06T10:55:03.883Z,29.41
2022-09-06T11:00:23.192Z,30.99
2022-09-06T11:05:44.325Z,32.72
2022-09-06T11:11:06.777Z,30.48
2022-09-06T11:13:33.358Z,31.00
2022-09-06T11:16:07.101Z,31.06
2022-09-06T11:18:42.526Z,31.46
2022-09-06T11:21:18.876Z,31.42
2022-09-06T11:23:52.349Z,30.54
2022-09-06T11:26:34.588Z,31.36
2022-09-06T11:29:03.113Z,30.81
2022-09-06T11:34:28.230Z,31.56
2022-09-06T11:36:56.618Z,29.74
2022-09-06T11:42:34.052Z,32.33
2022-09-06T11:45:06.697Z,31.97
2022-09-06T11:47:39.293Z,31.10
2022-09-06T11:50:20.979Z,29.40
2022-09-06T11:52:59.279Z,31.00
2022-09-06T11:55:46.136Z,31.29
2022-09-06T11:58:18.794Z,31.35
2022-09-06T12:00:46.393Z,31.70
2022-09-06T12:06:19.114Z,31.74
2022-09-06T12:08:46.593Z,31.30
2022-09-06T12:11:31.404Z,31.81
2022-09-06T12:14:03.031Z,31.67
2022-09-06T12:16:48.329Z,30.90
2022-09-06T12:19:33.497Z,31.52
2022-09-06T12:22:00.038Z,31.02
2022-09-06T12:24:35.810Z,30.15
2022-09-06T12:27:18.571Z,29.73
2022-09-06T12:30:05.958Z,28.89
2022-09-06T12:32:46.848Z,28.49
2022-09-06T12:38:07.703Z,29.51
2022-09-06T12:40:37.933Z,29.62
2022-09-06T12:43:05.030Z,29.84
2022-09-06T12:45:31.824Z,29.40
2022-09-06T12:48:09.457Z,30.25
2022-09-06T12:50:36.299Z,30.11
2022-09-06T12:53:04.347Z,30.57
2022-09-06T12:55:37.689Z,31.21
2022-09-06T12:58:05.493Z,31.23
2022-09-06T13:00:47.017Z,30.07
2022-09-06T13:03:25.787Z,29.34
2022-09-06T13:05:53.134Z,28.66
2022-09-06T13:08:25.940Z,28.84
2022-09-06T13:10:53.304Z,29.45
2022-09-06T13:13:22.339Z,29.26
2022-09-06T13:15:49.123Z,29.01
2022-09-06T13:18:20.601Z,28.99
2022-09-06T13:20:57.578Z,28.30
2022-09-06T13:23:24.165Z,28.08
2022-09-06T13:25:54.191Z,28.39
2022-09-06T13:28:24.340Z,29.67
2022-09-06T13:31:03.463Z,29.70
2022-09-06T13:33:30.134Z,29.40
2022-09-06T13:36:12.004Z,28.97
2022-09-06T13:38:38.575Z,28.65
2022-09-06T13:41:12.534Z,28.52
2022-09-06T13:43:45.809Z,28.26
2022-09-06T13:46:12.531Z,27.82
2022-09-06T13:48:44.524Z,28.52
2022-09-06T13:51:11.574Z,29.45
2022-09-06T13:53:38.045Z,28.77
2022-09-06T13:56:08.695Z,29.46
2022-09-06T13:58:36.017Z,30.14
2022-09-06T14:01:02.625Z,30.55
2022-09-06T14:03:31.087Z,30.60
2022-09-06T14:05:57.851Z,30.49
2022-09-06T14:08:24.480Z,30.17
2022-09-06T14:10:51.338Z,30.21
2022-09-06T14:13:18.443Z,30.26
2022-09-06T14:15:45.601Z,30.80
2022-09-06T14:18:14.468Z,30.01
2022-09-06T14:20:41.857Z,29.75
2022-09-06T14:23:08.894Z,29.39
2022-09-06T14:25:36.258Z,29.26
2022-09-06T14:28:03.574Z,29.35
2022-09-06T14:30:30.544Z,29.16
2022-09-06T14:32:57.030Z,28.56
2022-09-06T14:35:23.510Z,28.91
2022-09-06T14:37:50.142Z,28.80
2022-09-06T14:40:26.265Z,28.51
2022-09-06T14:42:52.820Z,27.97
2022-09-06T14:45:19.932Z,28.08
2022-09-06T14:47:46.448Z,28.30
2022-09-06T14:50:13.015Z,28.12
2022-09-06T14:52:39.574Z,28.46
2022-09-06T14:55:06.274Z,28.59
2022-09-06T14:57:32.795Z,28.34
2022-09-06T15:00:00.654Z,29.26
2022-09-06T15:02:28.933Z,29.10
2022-09-06T15:04:55.765Z,28.13
2022-09-06T15:07:22.396Z,28.43
2022-09-06T15:09:51.040Z,28.27
2022-09-06T15:12:18.062Z,28.45
2022-09-06T15:14:44.701Z,28.55
2022-09-06T15:17:11.360Z,28.63
2022-09-06T15:19:38.377Z,28.44
2022-09-06T15:22:05.874Z,27.68
2022-09-06T15:24:32.819Z,27.92
2022-09-06T15:27:00.141Z,28.15
2022-09-06T15:29:29.598Z,27.83
2022-09-06T15:31:56.271Z,27.95
2022-09-06T15:34:24.241Z,27.98
2022-09-06T15:36:51.526Z,27.88
2022-09-06T15:39:18.535Z,28.17
2022-09-06T15:41:45.213Z,27.42
2022-09-06T15:44:16.010Z,27.25
2022-09-06T15:47:00.673Z,27.13
2022-09-06T15:49:28.803Z,27.13
2022-09-06T15:51:56.506Z,27.24
2022-09-06T15:54:41.681Z,27.12
2022-09-06T15:57:08.278Z,27.01
2022-09-06T15:59:34.796Z,26.68
2022-09-06T16:02:01.762Z,26.75
2022-09-06T16:04:28.315Z,26.71
2022-09-06T16:06:56.701Z,26.40
2022-09-06T16:09:23.372Z,26.17
2022-09-06T16:11:50.069Z,25.89
2022-09-06T16:14:16.617Z,25.95
2022-09-06T16:16:43.450Z,25.80
2022-09-06T16:19:11.183Z,26.20
2022-09-06T16:21:39.032Z,26.38
2022-09-06T16:24:06.590Z,26.61
2022-09-06T16:26:34.592Z,26.78
2022-09-06T16:29:01.898Z,26.87
2022-09-06T16:31:28.999Z,26.87
2022-09-06T16:33:57.353Z,26.61
2022-09-06T16:36:24.815Z,26.46
2022-09-06T16:38:51.513Z,26.86
2022-09-06T16:41:22.621Z,26.71
2022-09-06T16:43:49.324Z,26.82
2022-09-06T16:46:16.619Z,26.44
2022-09-06T16:48:43.700Z,26.44
2022-09-06T16:51:15.047Z,26.28
2022-09-06T16:53:42.839Z,26.04
2022-09-06T16:56:10.147Z,25.94
2022-09-06T16:58:36.938Z,25.72
2022-09-06T17:01:03.513Z,25.62
2022-09-06T17:03:30.339Z,25.56
2022-09-06T17:05:56.947Z,25.48
2022-09-06T17:08:23.584Z,26.14
2022-09-06T17:10:50.290Z,25.60
2022-09-06T17:13:16.815Z,25.56
2022-09-06T17:16:10.735Z,25.35
2022-09-06T17:18:37.489Z,24.97
2022-09-06T17:21:08.131Z,24.99
2022-09-06T17:23:35.250Z,24.92
2022-09-06T17:26:01.846Z,24.98
2022-09-06T17:28:28.738Z,25.04
2022-09-06T17:30:55.470Z,24.64
2022-09-06T17:33:23.656Z,24.61
2022-09-06T17:35:50.207Z,24.63
2022-09-06T17:38:16.784Z,24.65
2022-09-06T17:40:43.565Z,24.54
2022-09-06T17:43:10.138Z,24.42
2022-09-06T17:45:38.003Z,24.42
2022-09-06T17:48:05.058Z,24.57
2022-09-06T17:50:32.353Z,24.42
2022-09-06T17:52:59.643Z,24.47
2022-09-06T17:55:28.881Z,24.52
2022-09-06T17:57:58.717Z,24.50
2022-09-06T18:00:26.224Z,24.48
2022-09-06T18:02:52.922Z,24.50
2022-09-06T18:05:19.511Z,24.33
2022-09-06T18:07:46.153Z,24.09
2022-09-06T18:10:15.057Z,24.22
2022-09-06T18:12:42.143Z,23.12
2022-09-06T18:15:08.931Z,22.93
2022-09-06T18:17:35.510Z,22.45
2022-09-06T18:20:02.698Z,22.29
2022-09-06T18:22:29.658Z,22.32
2022-09-06T18:24:58.312Z,21.81
2022-09-06T18:27:25.806Z,21.83
2022-09-06T18:29:52.423Z,20.45
2022-09-06T18:32:18.997Z,20.62
2022-09-06T18:34:45.535Z,21.13
2022-09-06T18:37:12.165Z,21.43
2022-09-06T18:39:39.567Z,20.72
2022-09-06T18:42:11.127Z,21.15
2022-09-06T18:44:38.262Z,21.23
2022-09-06T18:47:06.697Z,20.74
2022-09-06T18:49:33.822Z,19.97
2022-09-06T18:52:04.002Z,19.34
2022-09-06T18:54:30.667Z,19.31
2022-09-06T18:56:57.281Z,19.54
2022-09-06T18:59:24.016Z,19.69
2022-09-06T19:01:50.641Z,19.92
2022-09-06T19:04:17.313Z,20.32
2022-09-06T19:06:44.627Z,20.37
2022-09-06T19:09:12.755Z,19.96
2022-09-06T19:11:41.631Z,19.69
2022-09-06T19:14:08.197Z,19.45
2022-09-06T19:16:35.109Z,19.42
2022-09-06T19:19:02.896Z,19.12
2022-09-06T19:21:29.449Z,19.18
2022-09-06T19:24:00.502Z,19.38
2022-09-06T19:26:28.110Z,19.23
2022-09-06T19:28:55.894Z,19.14
2022-09-06T19:31:23.235Z,19.37
2022-09-06T19:33:50.773Z,19.33
2022-09-06T19:36:18.137Z,19.36
2022-09-06T19:39:02.396Z,19.38
2022-09-06T19:41:30.079Z,19.38
2022-09-06T19:43:57.366Z,19.29
2022-09-06T19:46:24.422Z,19.43
2022-09-06T19:48:51.926Z,19.34
2022-09-06T19:51:19.013Z,19.29
2022-09-06T19:53:57.651Z,19.44
2022-09-06T19:56:26.052Z,19.55
2022-09-06T19:58:53.810Z,19.46
2022-09-06T20:01:20.500Z,19.51
2022-09-06T20:03:47.297Z,19.52
2022-09-06T20:06:13.840Z,19.47
2022-09-06T20:08:40.410Z,19.33
2022-09-06T20:11:07.892Z,19.20
2022-09-06T20:13:35.246Z,19.23
2022-09-06T20:16:05.842Z,19.51
2022-09-06T20:18:33.566Z,20.18
2022-09-06T20:21:00.189Z,19.96
2022-09-06T20:23:30.276Z,19.45
2022-09-06T20:26:05.124Z,19.13
2022-09-06T20:28:32.346Z,19.14
2022-09-06T20:31:00.826Z,18.96
2022-09-06T20:33:27.369Z,19.03
2022-09-06T20:36:03.751Z,19.41
2022-09-06T20:38:35.016Z,19.36
2022-09-06T20:41:06.109Z,19.37
2022-09-06T20:43:35.175Z,19.16
2022-09-06T20:46:04.294Z,19.03
2022-09-06T20:48:32.597Z,19.12
2022-09-06T20:51:00.414Z,19.00
2022-09-06T20:53:26.977Z,18.98
2022-09-06T20:56:00.990Z,19.06
2022-09-06T20:58:28.075Z,18.98
2022-09-06T21:00:55.124Z,18.87
2022-09-06T21:03:21.704Z,18.94
2022-09-06T21:05:48.795Z,18.95
2022-09-06T21:08:15.622Z,18.92
2022-09-06T21:10:42.931Z,18.92
2022-09-06T21:13:10.034Z,18.90
2022-09-06T21:15:37.127Z,19.12
2022-09-06T21:18:04.634Z,19.07
2022-09-06T21:20:31.796Z,19.21
2022-09-06T21:22:58.338Z,19.07
2022-09-06T21:25:24.922Z,19.19
2022-09-06T21:27:55.550Z,19.11
2022-09-06T21:30:22.403Z,18.97
2022-09-06T21:32:49.119Z,19.11
2022-09-06T21:35:15.719Z,19.32
2022-09-06T21:37:42.281Z,19.18
2022-09-06T21:40:09.254Z,19.08
2022-09-06T21:42:35.826Z,19.22
2022-09-06T21:45:02.374Z,19.09
2022-09-06T21:47:29.593Z,19.00
2022-09-06T21:49:56.100Z,19.06
2022-09-06T21:52:23.338Z,18.70
2022-09-06T21:54:49.894Z,18.73
2022-09-06T21:57:17.133Z,18.87
2022-09-06T21:59:43.661Z,18.95
2022-09-06T22:02:10.546Z,19.05
2022-09-06T22:04:37.874Z,19.18
2022-09-06T22:07:04.460Z,18.94
2022-09-06T22:09:30.983Z,18.87
2022-09-06T22:11:57.547Z,18.91
2022-09-06T22:14:24.227Z,18.69
2022-09-06T22:16:52.006Z,18.87
2022-09-06T22:19:18.636Z,18.75
2022-09-06T22:21:45.471Z,18.92
2022-09-06T22:24:12.760Z,18.80
2022-09-06T22:26:40.191Z,19.04
2022-09-06T22:29:07.946Z,18.85
2022-09-06T22:31:34.937Z,19.26
2022-09-06T22:34:01.602Z,18.91
2022-09-06T22:36:28.438Z,19.33
2022-09-06T22:38:58.610Z,19.21
2022-09-06T22:41:25.985Z,19.16
2022-09-06T22:43:52.531Z,18.60
2022-09-06T22:46:19.251Z,18.52
2022-09-06T22:48:45.874Z,18.60
2022-09-06T22:51:12.482Z,18.64
2022-09-06T22:53:39.370Z,18.52
2022-09-06T22:56:06.442Z,18.32
2022-09-06T22:58:33.530Z,18.30
2022-09-06T23:01:05.528Z,18.10
2022-09-06T23:03:32.217Z,17.98
2022-09-06T23:06:02.636Z,18.02
2022-09-06T23:08:29.732Z,17.99
2022-09-06T23:10:56.371Z,18.02
2022-09-06T23:13:22.901Z,18.05
2022-09-06T23:15:49.458Z,18.04
2022-09-06T23:18:16.204Z,18.02
2022-09-06T23:20:42.790Z,17.92
2022-09-06T23:23:09.375Z,17.94
2022-09-06T23:25:39.142Z,17.87
2022-09-06T23:28:05.860Z,17.83
2022-09-06T23:30:32.457Z,17.68
2022-09-06T23:32:59.064Z,17.80
2022-09-06T23:35:25.689Z,17.80
2022-09-06T23:37:53.790Z,17.68
2022-09-06T23:40:20.501Z,17.50
2022-09-06T23:42:47.148Z,17.57
2022-09-06T23:45:13.828Z,17.68
2022-09-06T23:47:41.145Z,17.54
2022-09-06T23:50:07.856Z,17.59
2022-09-06T23:52:34.378Z,17.76
2022-09-06T23:55:01.054Z,17.69
2022-09-06T23:57:27.594Z,17.36
2022-09-06T23:59:54.109Z,17.43
